Time;durP1;ratioP1;P1;durP2;ratioP2;P2;SDS_P1;SDS_P2;PMS_P1;PMS_P2;Temp;Humidity;BMP_temperature;BMP_pressure;BME280_temperature;BME280_humidity;BME280_pressure;Samples;Min_cycle;Max_cycle;Signal;HPM_P1;HPM_P2
2021/12/15 00:00:26;;;;;;;11.07;7.17;;;2.90;89.40;;;;;;6207387;28;20194;-66
2021/12/15 00:03:27;;;;;;;12.40;8.00;;;2.90;89.70;;;;;;6207639;28;20190;-67
2021/12/15 00:06:29;;;;;;;9.17;7.33;;;2.90;89.60;;;;;;6214367;28;20221;-66
2021/12/15 00:09:30;;;;;;;10.57;6.93;;;2.80;89.40;;;;;;6197353;28;20665;-66
2021/12/15 00:12:32;;;;;;;10.70;7.10;;;2.80;89.70;;;;;;6222551;28;20203;-66
2021/12/15 00:15:33;;;;;;;9.43;7.40;;;2.80;89.50;;;;;;6222723;28;20198;-67
2021/12/15 00:18:34;;;;;;;10.90;7.23;;;2.80;89.40;;;;;;6210291;28;20192;-67
2021/12/15 00:21:35;;;;;;;11.57;8.20;;;2.60;89.10;;;;;;6182940;28;20275;-67
2021/12/15 00:24:37;;;;;;;11.80;7.73;;;2.50;89.90;;;;;;6182782;28;20658;-67
2021/12/15 00:27:38;;;;;;;12.10;7.53;;;2.60;90.40;;;;;;6178751;28;20227;-67
2021/12/15 00:30:39;;;;;;;11.93;8.43;;;2.50;90.00;;;;;;6227495;28;20203;-67
2021/12/15 00:33:42;;;;;;;12.17;8.00;;;2.50;90.10;;;;;;6238080;28;20187;-67
2021/12/15 00:36:47;;;;;;;12.67;7.50;;;2.40;90.00;;;;;;6231512;28;20191;-67
2021/12/15 00:39:48;;;;;;;10.60;7.23;;;2.40;90.50;;;;;;6216095;28;20283;-67
2021/12/15 00:42:49;;;;;;;10.23;6.97;;;2.40;90.20;;;;;;6207293;28;20206;-67
2021/12/15 00:45:50;;;;;;;12.23;7.10;;;2.40;90.20;;;;;;6213370;28;20281;-67
2021/12/15 00:48:52;;;;;;;8.37;6.13;;;2.30;90.70;;;;;;6226994;28;20195;-67
2021/12/15 00:51:53;;;;;;;8.63;6.30;;;2.40;90.70;;;;;;6206698;28;20426;-67
2021/12/15 00:54:54;;;;;;;9.23;6.27;;;2.30;90.70;;;;;;6224590;28;20275;-67
2021/12/15 00:57:55;;;;;;;9.77;6.93;;;2.40;90.90;;;;;;6194541;28;20264;-67
2021/12/15 01:00:59;;;;;;;8.70;6.70;;;2.40;90.90;;;;;;6193019;28;20202;-67
2021/12/15 01:04:00;;;;;;;10.07;6.60;;;2.50;90.90;;;;;;6209737;28;20198;-67
2021/12/15 01:07:06;;;;;;;7.83;6.20;;;2.40;90.90;;;;;;6198952;28;20206;-67
2021/12/15 01:10:08;;;;;;;13.73;7.47;;;2.40;90.90;;;;;;6208899;28;20220;-67
2021/12/15 01:19:49;;;;;;;6.57;5.37;;;2.40;90.60;;;;;;6238195;28;20650;-67
2021/12/15 01:22:52;;;;;;;6.37;5.17;;;2.40;90.30;;;;;;6212704;28;20203;-67
2021/12/15 01:26:04;;;;;;;7.73;5.93;;;2.50;90.70;;;;;;6199498;28;20195;-67
2021/12/15 01:29:05;;;;;;;9.93;6.80;;;2.50;90.40;;;;;;6210441;28;20187;-67
2021/12/15 01:32:07;;;;;;;11.10;7.40;;;2.50;90.40;;;;;;6215919;28;20201;-67
2021/12/15 01:35:09;;;;;;;7.30;6.10;;;2.40;90.80;;;;;;6233553;28;20282;-67
2021/12/15 01:38:11;;;;;;;9.93;6.77;;;2.50;90.80;;;;;;6213740;28;20315;-67
2021/12/15 01:41:20;;;;;;;9.60;6.03;;;2.40;90.40;;;;;;6208758;28;20192;-67
2021/12/15 01:47:23;;;;;;;9.67;7.13;;;2.40;90.90;;;;;;6262248;28;20230;-67
2021/12/15 01:50:23;;;;;;;11.03;8.33;;;2.40;90.70;;;;;;6231931;28;20226;-67
2021/12/15 01:53:25;;;;;;;9.30;7.80;;;2.40;90.90;;;;;;6226027;28;20221;-67
2021/12/15 01:56:27;;;;;;;10.40;7.70;;;2.40;90.90;;;;;;6204530;28;20194;-67
2021/12/15 01:59:30;;;;;;;8.57;7.27;;;2.50;91.10;;;;;;6193481;28;20251;-67
2021/12/15 02:02:31;;;;;;;11.87;7.53;;;2.50;90.90;;;;;;6208931;28;20275;-67
2021/12/15 02:05:34;;;;;;;12.87;7.70;;;2.50;91.40;;;;;;6207647;28;20194;-67
2021/12/15 02:08:36;;;;;;;13.23;7.83;;;2.60;91.10;;;;;;6224179;28;20189;-67
2021/12/15 02:11:37;;;;;;;12.63;8.60;;;2.60;91.20;;;;;;6216152;28;20202;-67
2021/12/15 02:14:38;;;;;;;11.70;8.00;;;2.60;90.50;;;;;;6218008;28;20187;-67
2021/12/15 02:17:40;;;;;;;10.63;6.97;;;2.60;91.00;;;;;;6201616;28;20206;-67
2021/12/15 02:20:46;;;;;;;9.33;7.00;;;2.60;91.10;;;;;;6223772;28;20279;-67
2021/12/15 02:23:53;;;;;;;8.13;6.13;;;2.60;90.90;;;;;;6240372;28;20214;-67
2021/12/15 02:26:58;;;;;;;8.87;5.67;;;2.70;90.60;;;;;;6233357;28;20337;-67
2021/12/15 02:30:15;;;;;;;8.77;6.03;;;2.70;90.20;;;;;;6202231;28;20194;-67
2021/12/15 02:39:39;;;;;;;10.13;6.23;;;2.40;90.20;;;;;;6232368;28;20203;-67
2021/12/15 02:42:45;;;;;;;10.33;6.03;;;2.40;90.80;;;;;;6217204;28;20257;-67
2021/12/15 02:45:46;;;;;;;12.90;7.27;;;2.40;90.90;;;;;;6216953;28;20179;-67
2021/12/15 02:48:49;;;;;;;13.10;7.47;;;2.50;91.00;;;;;;6196279;28;20289;-67
2021/12/15 02:51:51;;;;;;;16.30;8.27;;;2.40;90.50;;;;;;6232493;28;20186;-67
2021/12/15 02:54:53;;;;;;;14.23;7.80;;;2.40;90.40;;;;;;6227854;28;20191;-67
2021/12/15 02:57:54;;;;;;;15.50;6.83;;;2.40;90.90;;;;;;6233605;28;20249;-67
2021/12/15 03:01:01;;;;;;;13.10;8.10;;;2.40;90.90;;;;;;6216808;28;20213;-67
2021/12/15 03:04:42;;;;;;;11.17;8.10;;;2.40;90.80;;;;;;6199187;28;20204;-67
2021/12/15 03:17:18;;;;;;;13.80;7.53;;;2.40;90.90;;;;;;6235043;28;20196;-67
2021/12/15 03:20:19;;;;;;;15.43;7.93;;;2.50;90.90;;;;;;6213771;28;20221;-67
2021/12/15 03:23:53;;;;;;;14.17;8.37;;;2.50;90.90;;;;;;6218506;28;20201;-67
2021/12/15 03:27:02;;;;;;;9.93;6.37;;;2.50;90.80;;;;;;6197625;28;20267;-67
2021/12/15 03:40:23;;;;;;;16.03;7.40;;;2.60;90.60;;;;;;6205556;28;20670;-67
2021/12/15 03:43:24;;;;;;;12.17;7.03;;;2.60;90.70;;;;;;6186566;28;20192;-67
2021/12/15 03:46:25;;;;;;;9.27;6.70;;;2.60;90.60;;;;;;6212570;28;20214;-67
2021/12/15 03:49:26;;;;;;;8.47;6.33;;;2.60;90.50;;;;;;6231975;28;20190;-67
2021/12/15 03:52:27;;;;;;;11.53;7.00;;;2.60;90.30;;;;;;6206593;28;20214;-67
2021/12/15 03:55:31;;;;;;;14.47;7.37;;;2.60;90.40;;;;;;6216038;28;20183;-67
2021/12/15 03:58:32;;;;;;;11.70;6.53;;;2.60;90.50;;;;;;6215819;28;20233;-67
2021/12/15 04:01:33;;;;;;;9.33;6.23;;;2.50;90.40;;;;;;6223277;28;20191;-67
2021/12/15 04:04:34;;;;;;;10.90;6.53;;;2.60;90.80;;;;;;6190573;28;20195;-67
2021/12/15 04:07:37;;;;;;;10.33;6.30;;;2.60;90.60;;;;;;6206102;28;20219;-67
2021/12/15 04:10:38;;;;;;;9.67;6.20;;;2.60;90.50;;;;;;6219402;28;20269;-67
2021/12/15 04:13:40;;;;;;;8.23;5.93;;;2.60;90.50;;;;;;6207131;28;20213;-67
2021/12/15 04:16:45;;;;;;;6.90;5.90;;;2.60;90.20;;;;;;6205173;28;20178;-67
2021/12/15 04:19:45;;;;;;;7.33;5.37;;;2.60;90.00;;;;;;6216074;28;20193;-67
2021/12/15 04:22:47;;;;;;;7.47;5.77;;;2.50;90.30;;;;;;6196173;28;20191;-67
2021/12/15 04:25:51;;;;;;;7.03;5.23;;;2.50;90.80;;;;;;6225671;28;20190;-67
2021/12/15 04:28:52;;;;;;;7.83;5.93;;;2.60;90.60;;;;;;6195368;28;20217;-67
2021/12/15 04:32:19;;;;;;;9.60;6.47;;;2.60;90.40;;;;;;6220090;28;20187;-67
2021/12/15 04:35:21;;;;;;;9.67;5.53;;;2.60;89.90;;;;;;6196313;28;20188;-67
2021/12/15 04:38:24;;;;;;;11.37;6.00;;;2.60;90.80;;;;;;6214793;28;20650;-67
2021/12/15 04:41:26;;;;;;;7.97;6.40;;;2.60;90.70;;;;;;6226197;28;20191;-67
2021/12/15 04:44:30;;;;;;;12.93;7.13;;;2.60;90.70;;;;;;6209541;28;20277;-67
2021/12/15 04:47:31;;;;;;;11.00;7.33;;;2.60;90.40;;;;;;6224186;28;20211;-67
2021/12/15 04:50:32;;;;;;;10.60;6.97;;;2.60;90.70;;;;;;6209528;28;20222;-67
2021/12/15 04:53:34;;;;;;;10.10;6.60;;;2.60;90.90;;;;;;6225151;28;20195;-67
2021/12/15 04:56:35;;;;;;;11.30;6.90;;;2.50;91.00;;;;;;6241071;28;20236;-67
2021/12/15 04:59:36;;;;;;;10.43;6.27;;;2.60;91.00;;;;;;6237681;28;20234;-67
2021/12/15 05:02:37;;;;;;;8.40;5.50;;;2.60;90.60;;;;;;6233818;28;20205;-67
2021/12/15 05:05:38;;;;;;;8.83;5.57;;;2.60;90.50;;;;;;6221469;28;20222;-68
2021/12/15 05:08:40;;;;;;;8.63;5.57;;;2.60;90.50;;;;;;6211569;28;20270;-67
2021/12/15 05:11:41;;;;;;;9.60;5.80;;;2.70;90.30;;;;;;6214077;28;20206;-67
2021/12/15 05:14:42;;;;;;;7.60;5.60;;;2.60;90.50;;;;;;6241495;28;20194;-67
2021/12/15 05:17:43;;;;;;;9.07;5.80;;;2.60;90.50;;;;;;6217336;28;20213;-67
2021/12/15 05:20:50;;;;;;;8.67;5.97;;;2.60;90.30;;;;;;6249213;28;20190;-67
2021/12/15 05:23:57;;;;;;;11.40;6.03;;;2.60;91.00;;;;;;6208644;28;20203;-67
2021/12/15 05:27:00;;;;;;;8.63;5.93;;;2.70;90.80;;;;;;6202771;28;20204;-67
2021/12/15 05:30:01;;;;;;;9.23;6.03;;;2.70;90.70;;;;;;6226584;28;20186;-73
2021/12/15 05:33:02;;;;;;;6.53;5.20;;;2.70;90.50;;;;;;6227120;28;20195;-67
2021/12/15 05:36:05;;;;;;;8.27;5.60;;;2.70;90.30;;;;;;6200824;28;20184;-67
2021/12/15 05:39:06;;;;;;;10.50;6.03;;;2.80;90.20;;;;;;6185943;28;20204;-67
2021/12/15 05:42:07;;;;;;;9.40;5.77;;;2.80;90.20;;;;;;6186337;28;20191;-66
2021/12/15 05:45:09;;;;;;;6.93;5.77;;;2.80;89.90;;;;;;6172790;28;20184;-67
2021/12/15 05:48:13;;;;;;;8.00;5.93;;;2.80;89.90;;;;;;6205867;28;20957;-67
2021/12/15 05:51:14;;;;;;;6.53;5.17;;;2.70;90.00;;;;;;6234633;28;20182;-68
2021/12/15 05:54:15;;;;;;;8.47;5.50;;;2.80;90.20;;;;;;6222466;28;20194;-68
2021/12/15 05:57:16;;;;;;;7.63;5.90;;;2.80;90.10;;;;;;6213639;28;20218;-68
2021/12/15 06:00:20;;;;;;;9.57;5.83;;;2.80;90.10;;;;;;6216250;28;20197;-68
2021/12/15 06:03:21;;;;;;;7.70;5.83;;;2.70;89.90;;;;;;6219506;28;20206;-68
2021/12/15 06:06:22;;;;;;;9.23;6.00;;;2.70;90.00;;;;;;6211071;28;20230;-68
2021/12/15 06:09:23;;;;;;;12.73;5.30;;;2.70;90.20;;;;;;6226274;28;20245;-68
2021/12/15 06:12:24;;;;;;;10.07;6.07;;;2.70;90.10;;;;;;6225323;28;20199;-68
2021/12/15 06:15:28;;;;;;;7.67;5.97;;;2.80;90.20;;;;;;6209078;28;20180;-68
2021/12/15 06:18:29;;;;;;;5.90;4.47;;;2.80;90.10;;;;;;6233861;28;20196;-67
2021/12/15 06:21:31;;;;;;;9.27;5.77;;;2.80;89.90;;;;;;6208919;28;20190;-66
2021/12/15 06:24:32;;;;;;;9.33;6.03;;;2.80;89.80;;;;;;6197292;28;20195;-66
2021/12/15 06:27:36;;;;;;;6.87;5.50;;;2.80;90.10;;;;;;6222690;28;20294;-63
2021/12/15 06:30:37;;;;;;;7.73;5.70;;;2.80;89.50;;;;;;6217159;28;20301;-63
2021/12/15 06:33:40;;;;;;;9.27;6.20;;;2.80;89.80;;;;;;6233375;28;20257;-65
2021/12/15 06:36:42;;;;;;;9.27;5.80;;;2.70;90.00;;;;;;6249594;28;20195;-65
2021/12/15 06:39:43;;;;;;;8.47;6.37;;;2.80;90.40;;;;;;6243520;28;20198;-65
2021/12/15 06:42:44;;;;;;;9.60;6.13;;;2.80;90.00;;;;;;6201547;28;20189;-70
2021/12/15 06:46:35;;;;;;;7.23;5.63;;;2.80;90.10;;;;;;6203522;28;20192;-71
2021/12/15 06:59:09;;;;;;;8.27;6.00;;;2.90;89.70;;;;;;6229755;28;20243;-71
2021/12/15 07:02:10;;;;;;;8.00;5.60;;;2.90;89.90;;;;;;6215272;28;20200;-71
2021/12/15 07:05:12;;;;;;;10.03;7.17;;;3.00;89.80;;;;;;6202347;28;20183;-71
2021/12/15 07:08:13;;;;;;;18.63;7.57;;;2.90;89.90;;;;;;6230652;28;20221;-71
2021/12/15 07:11:14;;;;;;;7.27;5.67;;;2.90;90.30;;;;;;6197139;28;20194;-70
2021/12/15 07:14:15;;;;;;;9.43;6.03;;;2.90;89.80;;;;;;6220162;28;20202;-70
2021/12/15 07:17:21;;;;;;;8.17;6.30;;;2.90;90.10;;;;;;6199017;28;20272;-71
2021/12/15 07:23:25;;;;;;;16.33;8.23;;;3.00;90.20;;;;;;6222684;28;20764;-71
2021/12/15 07:26:26;;;;;;;12.77;8.23;;;3.10;89.90;;;;;;6231178;28;20221;-71
2021/12/15 07:29:28;;;;;;;16.00;9.00;;;3.20;89.40;;;;;;6218568;28;20199;-71
2021/12/15 07:32:29;;;;;;;14.60;8.00;;;3.20;89.50;;;;;;6231747;28;20182;-71
2021/12/15 07:35:30;;;;;;;10.57;8.17;;;3.20;89.70;;;;;;6215216;28;20194;-71
2021/12/15 07:38:31;;;;;;;12.00;9.47;;;3.20;89.50;;;;;;6221475;28;20191;-64
2021/12/15 07:41:41;;;;;;;14.33;10.10;;;3.20;89.10;;;;;;6238855;28;20229;-63
2021/12/15 07:44:42;;;;;;;16.90;7.80;;;3.20;89.60;;;;;;6258716;28;20206;-63
2021/12/15 07:47:43;;;;;;;12.93;8.67;;;3.30;89.60;;;;;;6239556;28;20228;-63
2021/12/15 07:50:46;;;;;;;11.80;7.40;;;3.30;89.30;;;;;;6197036;28;20209;-64
2021/12/15 07:53:47;;;;;;;11.33;7.60;;;3.30;88.90;;;;;;6221647;28;20282;-64
2021/12/15 07:56:48;;;;;;;13.03;7.17;;;3.30;89.00;;;;;;6189230;28;20672;-64
2021/12/15 07:59:50;;;;;;;13.90;8.13;;;3.40;88.80;;;;;;6206463;28;20374;-64
2021/12/15 08:02:52;;;;;;;14.00;7.17;;;3.40;88.60;;;;;;6228755;28;20202;-64
2021/12/15 08:05:53;;;;;;;11.13;7.23;;;3.40;88.80;;;;;;6231216;28;20197;-64
2021/12/15 08:08:55;;;;;;;12.17;7.97;;;3.50;88.60;;;;;;6235108;28;20189;-64
2021/12/15 08:11:56;;;;;;;11.43;7.53;;;3.60;88.60;;;;;;6220012;28;20244;-63
2021/12/15 08:14:56;;;;;;;13.80;7.77;;;3.60;88.40;;;;;;6197085;28;20194;-63
2021/12/15 08:17:57;;;;;;;13.30;8.03;;;3.60;88.50;;;;;;6218027;28;20191;-63
2021/12/15 08:21:00;;;;;;;12.87;7.47;;;3.70;88.40;;;;;;6228015;28;20203;-63
2021/12/15 08:24:02;;;;;;;12.57;7.87;;;3.70;88.40;;;;;;6244796;28;20250;-63
2021/12/15 08:27:03;;;;;;;10.93;7.27;;;3.80;88.50;;;;;;6236002;28;20210;-63
2021/12/15 08:30:08;;;;;;;12.80;8.47;;;3.80;87.80;;;;;;6212349;28;20191;-63
2021/12/15 08:33:14;;;;;;;12.27;8.30;;;3.80;87.50;;;;;;6243091;28;20302;-63
2021/12/15 08:36:15;;;;;;;11.93;7.77;;;3.80;88.00;;;;;;6219620;28;20249;-63
2021/12/15 08:39:16;;;;;;;12.50;7.67;;;3.90;87.60;;;;;;6226219;28;20195;-63
2021/12/15 08:42:17;;;;;;;14.60;8.17;;;3.90;87.60;;;;;;6249567;28;20225;-64
2021/12/15 08:45:19;;;;;;;12.03;7.80;;;3.90;87.70;;;;;;6227101;28;20204;-64
2021/12/15 08:48:20;;;;;;;11.07;8.90;;;4.00;87.40;;;;;;6236201;28;20282;-64
2021/12/15 08:51:25;;;;;;;17.50;7.87;;;4.00;87.60;;;;;;6206045;28;20201;-64
2021/12/15 08:54:26;;;;;;;15.17;9.03;;;4.00;87.30;;;;;;6238528;28;20198;-64
2021/12/15 08:57:27;;;;;;;11.53;8.50;;;4.10;87.50;;;;;;6251304;28;20244;-63
2021/12/15 09:00:28;;;;;;;14.67;8.77;;;4.10;87.40;;;;;;6203006;28;20189;-63
2021/12/15 09:03:29;;;;;;;11.87;6.93;;;4.20;86.70;;;;;;6207530;28;20225;-63
2021/12/15 09:06:32;;;;;;;12.43;7.83;;;4.20;86.50;;;;;;6239784;28;20221;-63
2021/12/15 09:09:33;;;;;;;15.13;7.97;;;4.20;87.10;;;;;;6225401;28;20190;-63
2021/12/15 09:12:35;;;;;;;11.20;7.27;;;4.30;87.20;;;;;;6193417;28;20182;-63
2021/12/15 09:15:37;;;;;;;12.97;8.27;;;4.30;87.00;;;;;;6183954;28;20215;-64
2021/12/15 09:18:42;;;;;;;10.20;7.80;;;4.40;86.40;;;;;;6193078;28;20619;-64
2021/12/15 09:21:43;;;;;;;10.53;7.43;;;4.30;86.90;;;;;;6217490;28;20181;-64
2021/12/15 09:24:43;;;;;;;11.33;7.67;;;4.40;86.30;;;;;;6229963;28;20244;-64
2021/12/15 09:27:45;;;;;;;14.13;7.93;;;4.40;86.20;;;;;;6208739;28;20240;-64
2021/12/15 09:30:48;;;;;;;10.70;7.47;;;4.50;86.90;;;;;;6208751;28;20190;-64
2021/12/15 09:33:53;;;;;;;11.70;8.87;;;4.50;86.40;;;;;;6212117;28;20194;-64
2021/12/15 09:36:54;;;;;;;10.97;8.53;;;4.40;87.30;;;;;;6215493;28;20188;-64
2021/12/15 09:39:57;;;;;;;10.07;7.33;;;4.50;86.50;;;;;;6215304;28;20265;-64
2021/12/15 09:42:57;;;;;;;9.77;7.50;;;4.50;86.70;;;;;;6195828;28;20187;-64
2021/12/15 09:46:12;;;;;;;13.73;8.10;;;4.50;86.40;;;;;;6225897;28;20189;-63
2021/12/15 10:02:41;;;;;;;12.87;8.47;;;4.60;86.00;;;;;;6225666;28;20195;-65
2021/12/15 10:18:46;;;;;;;15.17;8.40;;;4.80;86.40;;;;;;6241986;28;20231;-65
2021/12/15 10:22:05;;;;;;;14.87;9.37;;;4.80;86.70;;;;;;6217530;28;20207;-64
2021/12/15 10:25:37;;;;;;;12.87;9.17;;;4.80;86.60;;;;;;6217492;28;20202;-65
2021/12/15 10:28:39;;;;;;;12.57;9.30;;;4.80;86.50;;;;;;6244536;28;20218;-64
2021/12/15 10:31:40;;;;;;;12.33;9.30;;;4.80;86.40;;;;;;6202391;28;20286;-64
2021/12/15 10:34:44;;;;;;;13.73;9.60;;;4.90;86.20;;;;;;6209074;28;20179;-64
2021/12/15 10:38:20;;;;;;;13.40;8.93;;;4.90;86.00;;;;;;6209199;28;20203;-65
2021/12/15 10:41:39;;;;;;;18.87;12.17;;;5.00;85.80;;;;;;6221341;28;20191;-64
2021/12/15 10:44:40;;;;;;;19.40;14.13;;;5.00;86.00;;;;;;6242622;28;20200;-65
2021/12/15 10:47:44;;;;;;;22.30;14.60;;;4.90;87.80;;;;;;6168396;28;20230;-64
2021/12/15 10:50:47;;;;;;;20.83;14.70;;;4.90;88.30;;;;;;6203654;28;20194;-64
2021/12/15 10:53:49;;;;;;;20.77;14.67;;;4.90;88.20;;;;;;6245144;28;20191;-64
2021/12/15 10:56:50;;;;;;;25.90;15.80;;;4.90;88.40;;;;;;6225444;28;20242;-65
2021/12/15 10:59:54;;;;;;;22.60;15.77;;;4.90;89.20;;;;;;6238529;28;20245;-64
2021/12/15 11:03:14;;;;;;;22.07;14.90;;;4.90;89.60;;;;;;6260325;28;20194;-64
2021/12/15 11:06:27;;;;;;;27.73;15.80;;;5.00;89.90;;;;;;6207771;28;20209;-64
2021/12/15 11:09:34;;;;;;;26.23;16.60;;;5.00;90.00;;;;;;6207356;28;20226;-64
2021/12/15 11:12:40;;;;;;;28.77;16.63;;;5.00;89.80;;;;;;6213177;28;20246;-64
2021/12/15 11:15:44;;;;;;;25.87;16.37;;;5.00;90.40;;;;;;6249915;28;20209;-65
2021/12/15 11:18:45;;;;;;;25.90;16.07;;;5.10;90.10;;;;;;6217842;28;20205;-64
2021/12/15 11:21:45;;;;;;;23.30;16.53;;;5.20;90.20;;;;;;6227730;28;20206;-64
2021/12/15 11:24:46;;;;;;;26.37;16.73;;;5.20;90.00;;;;;;6217511;28;20195;-64
2021/12/15 11:28:01;;;;;;;25.37;17.27;;;5.30;89.90;;;;;;6208336;28;20249;-65
2021/12/15 11:31:10;;;;;;;30.27;18.03;;;5.30;89.60;;;;;;6208312;28;20199;-65
2021/12/15 11:34:11;;;;;;;24.37;15.87;;;5.30;89.50;;;;;;6257072;28;20225;-64
2021/12/15 11:37:12;;;;;;;24.37;16.47;;;5.30;89.10;;;;;;6217859;28;20198;-65
2021/12/15 11:40:14;;;;;;;24.90;17.60;;;5.30;89.50;;;;;;6212263;28;20214;-65
2021/12/15 11:43:39;;;;;;;22.60;15.63;;;5.30;89.40;;;;;;6207525;28;20191;-65
2021/12/15 11:46:45;;;;;;;25.37;15.43;;;5.40;89.00;;;;;;6237751;28;20215;-65
2021/12/15 11:49:46;;;;;;;24.77;15.97;;;5.40;87.90;;;;;;6223918;28;20207;-64
2021/12/15 11:52:49;;;;;;;29.40;15.87;;;5.50;87.90;;;;;;6198018;28;20198;-64
2021/12/15 11:55:50;;;;;;;26.40;17.17;;;5.50;88.20;;;;;;6206905;28;20186;-64
2021/12/15 11:59:12;;;;;;;22.80;14.47;;;5.60;87.70;;;;;;6237499;28;20371;-65
2021/12/15 12:02:22;;;;;;;24.43;17.23;;;5.60;87.70;;;;;;6233373;28;20196;-63
2021/12/15 12:05:29;;;;;;;23.63;15.53;;;5.60;87.70;;;;;;6215292;28;20258;-63
2021/12/15 12:08:32;;;;;;;27.70;17.03;;;5.80;87.20;;;;;;6217152;28;20221;-64
2021/12/15 12:11:34;;;;;;;28.30;16.80;;;5.80;86.60;;;;;;6231158;28;20198;-64
2021/12/15 12:14:48;;;;;;;25.73;16.70;;;5.90;86.20;;;;;;6245309;28;20253;-63
2021/12/15 12:17:52;;;;;;;26.87;15.87;;;5.90;85.70;;;;;;6229417;28;20225;-64
2021/12/15 12:20:56;;;;;;;25.50;16.83;;;6.00;85.00;;;;;;6211741;28;20198;-64
2021/12/15 12:23:57;;;;;;;23.90;16.23;;;6.00;85.60;;;;;;6225856;28;20283;-64
2021/12/15 12:26:58;;;;;;;22.33;15.63;;;6.10;84.70;;;;;;6217793;28;20232;-64
2021/12/15 12:30:01;;;;;;;25.77;15.33;;;6.10;84.80;;;;;;6230924;28;20218;-64
2021/12/15 12:33:08;;;;;;;24.70;16.10;;;6.10;85.10;;;;;;6229819;28;20202;-64
2021/12/15 12:36:15;;;;;;;20.47;15.07;;;6.20;84.90;;;;;;6201249;28;20477;-64
2021/12/15 12:39:21;;;;;;;22.23;16.13;;;6.20;83.90;;;;;;6226436;28;20217;-64
2021/12/15 12:42:48;;;;;;;23.60;16.40;;;6.30;84.10;;;;;;6216009;28;20262;-64
2021/12/15 12:45:53;;;;;;;22.30;16.07;;;6.30;84.30;;;;;;6186259;28;20250;-64
2021/12/15 12:59:24;;;;;;;24.33;17.70;;;6.60;83.40;;;;;;6233583;28;20236;-63
2021/12/15 13:02:32;;;;;;;25.77;16.20;;;6.70;83.50;;;;;;6208779;28;20217;-63
2021/12/15 13:05:50;;;;;;;28.73;16.80;;;6.80;83.30;;;;;;6228269;28;20262;-63
2021/12/15 13:09:10;;;;;;;25.40;16.17;;;7.00;82.10;;;;;;6217061;28;20308;-64
2021/12/15 13:12:21;;;;;;;25.90;16.03;;;7.20;81.40;;;;;;6229005;28;20252;-64
2021/12/15 13:15:33;;;;;;;23.10;15.73;;;7.30;80.30;;;;;;6223494;28;20192;-64
2021/12/15 13:18:54;;;;;;;23.50;16.10;;;7.50;80.10;;;;;;6196463;28;20199;-64
2021/12/15 13:28:49;;;;;;;15.37;12.17;;;7.70;78.50;;;;;;6253246;28;20578;-63
2021/12/15 13:32:01;;;;;;;17.73;13.27;;;7.70;77.70;;;;;;6219877;28;20209;-63
2021/12/15 13:35:02;;;;;;;16.77;13.20;;;7.70;77.60;;;;;;6224888;28;20199;-64
2021/12/15 13:38:03;;;;;;;19.20;13.70;;;7.70;78.30;;;;;;6210454;28;20195;-64
2021/12/15 13:41:41;;;;;;;20.93;14.63;;;7.20;79.80;;;;;;6199430;28;20202;-64
2021/12/15 13:44:47;;;;;;;22.17;14.63;;;7.30;80.20;;;;;;6210722;28;20286;-64
2021/12/15 13:47:48;;;;;;;20.47;14.60;;;7.30;79.30;;;;;;6224906;28;20214;-64
2021/12/15 13:50:49;;;;;;;19.73;14.83;;;7.20;79.90;;;;;;6220429;28;20221;-64
2021/12/15 13:53:49;;;;;;;23.37;14.53;;;7.30;79.60;;;;;;6207031;28;20195;-64
2021/12/15 13:56:53;;;;;;;19.97;14.80;;;7.20;79.50;;;;;;6242062;28;20203;-64
2021/12/15 14:00:09;;;;;;;19.20;15.17;;;7.10;80.40;;;;;;6226290;28;20239;-64
2021/12/15 14:03:25;;;;;;;25.03;16.27;;;6.80;81.10;;;;;;6219665;28;20202;-64
2021/12/15 14:06:26;;;;;;;19.73;14.80;;;6.90;80.50;;;;;;6235777;28;20278;-64
2021/12/15 14:09:31;;;;;;;20.27;14.40;;;6.90;79.70;;;;;;6203198;28;20198;-64
2021/12/15 14:12:47;;;;;;;20.93;15.47;;;6.80;80.40;;;;;;6230842;28;20206;-64
2021/12/15 14:15:52;;;;;;;20.70;14.53;;;6.80;80.70;;;;;;6239903;28;20203;-64
2021/12/15 14:18:52;;;;;;;17.83;13.73;;;6.80;80.80;;;;;;6244273;28;20193;-64
2021/12/15 14:22:08;;;;;;;23.00;15.70;;;6.50;80.90;;;;;;6217509;28;20190;-64
2021/12/15 14:25:10;;;;;;;20.37;15.07;;;6.50;81.20;;;;;;6250100;28;20187;-64
2021/12/15 14:28:17;;;;;;;22.87;15.10;;;6.30;81.80;;;;;;6223686;28;20282;-64
2021/12/15 14:31:25;;;;;;;21.57;14.13;;;6.30;82.00;;;;;;6245692;28;20182;-64
2021/12/15 14:34:30;;;;;;;18.83;13.83;;;6.00;82.10;;;;;;6225350;28;20194;-64
2021/12/15 14:37:31;;;;;;;20.13;14.17;;;5.80;82.30;;;;;;6217561;28;20281;-64
2021/12/15 14:40:32;;;;;;;21.33;14.50;;;5.60;83.20;;;;;;6205098;28;20194;-65
2021/12/15 14:43:33;;;;;;;22.03;14.67;;;5.40;84.30;;;;;;6206649;28;20286;-64
2021/12/15 14:46:47;;;;;;;17.13;14.60;;;5.30;84.50;;;;;;6221578;28;20223;-64
2021/12/15 14:49:52;;;;;;;19.47;15.37;;;5.30;84.10;;;;;;6211601;28;20199;-64
2021/12/15 14:52:56;;;;;;;20.73;15.40;;;5.30;84.50;;;;;;6204104;28;20191;-64
2021/12/15 14:55:57;;;;;;;22.37;14.50;;;5.20;84.30;;;;;;6190954;28;20198;-64
2021/12/15 14:58:57;;;;;;;20.53;14.33;;;4.90;84.20;;;;;;6218090;28;20249;-64
2021/12/15 15:02:15;;;;;;;22.77;15.43;;;4.80;85.10;;;;;;6197565;28;20195;-64
2021/12/15 15:05:29;;;;;;;18.93;14.73;;;4.70;86.00;;;;;;6215922;28;20199;-64
2021/12/15 15:08:32;;;;;;;23.70;14.93;;;4.70;86.20;;;;;;6214377;28;20223;-64
2021/12/15 15:11:33;;;;;;;18.43;14.60;;;4.50;85.40;;;;;;6214073;28;20186;-64
2021/12/15 15:14:41;;;;;;;20.07;15.00;;;4.40;86.00;;;;;;6215910;28;20202;-64
2021/12/15 15:18:01;;;;;;;17.03;13.33;;;4.30;85.60;;;;;;6248455;28;20684;-64
2021/12/15 15:21:08;;;;;;;21.53;15.23;;;4.20;86.10;;;;;;6236475;28;20665;-64
2021/12/15 15:24:09;;;;;;;23.33;14.70;;;4.10;86.50;;;;;;6228302;28;20220;-64
2021/12/15 15:27:09;;;;;;;23.13;15.97;;;4.00;86.10;;;;;;6218134;28;20297;-64
2021/12/15 15:30:14;;;;;;;26.07;16.40;;;3.90;87.40;;;;;;6221933;28;20198;-65
2021/12/15 15:33:24;;;;;;;20.20;15.37;;;3.90;87.50;;;;;;6226950;28;20211;-65
2021/12/15 15:36:28;;;;;;;21.97;17.03;;;3.90;87.30;;;;;;6232323;28;20274;-65
2021/12/15 15:39:28;;;;;;;21.53;15.60;;;3.80;87.90;;;;;;6218838;28;20194;-64
2021/12/15 15:42:29;;;;;;;20.10;15.87;;;3.80;87.30;;;;;;6200854;28;20195;-63
2021/12/15 15:45:38;;;;;;;23.13;16.47;;;3.70;87.00;;;;;;6218716;28;20193;-63
2021/12/15 15:48:42;;;;;;;22.20;16.00;;;3.50;87.10;;;;;;6215140;28;20256;-64
2021/12/15 15:51:44;;;;;;;29.88;19.48;;;3.40;88.00;;;;;;6213351;28;20786;-63
2021/12/15 15:54:45;;;;;;;22.27;18.57;;;3.40;88.30;;;;;;6215372;28;20241;-64
2021/12/15 15:57:52;;;;;;;27.37;18.70;;;3.30;88.50;;;;;;6223624;28;20233;-64
2021/12/15 16:00:57;;;;;;;23.67;17.80;;;3.30;88.90;;;;;;6248055;28;20653;-65
2021/12/15 16:04:00;;;;;;;25.83;16.40;;;3.20;88.40;;;;;;6214239;28;20257;-64
2021/12/15 16:07:01;;;;;;;23.90;16.57;;;3.10;88.50;;;;;;6213767;28;20210;-64
2021/12/15 16:10:03;;;;;;;25.53;18.40;;;3.00;88.90;;;;;;6231485;28;20197;-63
2021/12/15 16:13:04;;;;;;;29.00;18.43;;;2.90;89.10;;;;;;6222619;28;20238;-65
2021/12/15 16:16:10;;;;;;;22.97;16.17;;;2.90;89.10;;;;;;6230011;28;20293;-63
2021/12/15 16:19:15;;;;;;;21.37;15.47;;;2.90;88.80;;;;;;6208072;28;20292;-63
2021/12/15 16:25:47;;;;;;;25.77;17.57;;;2.80;88.50;;;;;;6238587;28;20210;-63
2021/12/15 16:28:48;;;;;;;24.00;17.50;;;2.70;88.20;;;;;;6211711;28;20221;-63
2021/12/15 16:32:08;;;;;;;25.40;17.77;;;2.60;88.90;;;;;;6214228;28;20209;-64
2021/12/15 16:35:13;;;;;;;23.10;16.60;;;2.50;89.30;;;;;;6228399;28;20659;-64
2021/12/15 16:38:21;;;;;;;26.30;17.20;;;2.40;89.30;;;;;;6207701;28;20282;-63
2021/12/15 16:41:36;;;;;;;26.80;20.73;;;2.40;89.60;;;;;;6241672;28;20637;-63
2021/12/15 16:44:50;;;;;;;28.77;20.00;;;2.40;90.00;;;;;;6241204;28;20187;-62
2021/12/15 16:47:50;;;;;;;29.73;19.20;;;2.40;89.90;;;;;;6236120;28;20211;-64
2021/12/15 16:50:59;;;;;;;24.83;18.37;;;2.40;89.50;;;;;;6213570;28;20193;-64
2021/12/15 16:54:07;;;;;;;28.77;18.27;;;2.40;89.60;;;;;;6257802;28;20710;-64
2021/12/15 16:57:11;;;;;;;26.57;19.53;;;2.30;89.40;;;;;;6225222;28;20266;-64
2021/12/15 17:00:17;;;;;;;27.23;20.00;;;2.30;89.70;;;;;;6251958;28;20193;-64
2021/12/15 17:03:18;;;;;;;32.77;21.00;;;2.30;89.80;;;;;;6247093;28;20199;-63
2021/12/15 17:06:23;;;;;;;24.47;18.57;;;2.20;90.20;;;;;;6226860;28;20279;-63
2021/12/15 17:09:52;;;;;;;22.97;16.70;;;2.20;89.90;;;;;;6226792;28;20232;-64
2021/12/15 17:13:00;;;;;;;20.10;14.17;;;2.10;89.90;;;;;;6210740;28;20210;-64
2021/12/15 17:16:08;;;;;;;21.83;15.97;;;2.10;90.20;;;;;;6190483;28;20195;-64
2021/12/15 17:19:14;;;;;;;24.97;17.33;;;2.00;89.90;;;;;;6227419;28;20275;-64
2021/12/15 17:22:15;;;;;;;21.13;15.07;;;2.00;90.50;;;;;;6210664;28;20184;-64
2021/12/15 17:25:20;;;;;;;23.63;15.87;;;1.90;90.30;;;;;;6223643;28;20255;-64
2021/12/15 17:28:41;;;;;;;19.47;14.30;;;1.90;90.10;;;;;;6234370;28;20242;-65
2021/12/15 17:32:00;;;;;;;24.33;15.50;;;1.90;90.60;;;;;;6234722;28;20194;-64
2021/12/15 17:35:13;;;;;;;19.10;14.70;;;1.90;90.60;;;;;;6208997;28;20226;-64